Tamdy, Uzbekistan
Current Conditions -  °F | °C
As of 2:30 PM on Saturday 25 Oct 2014 (Local Time) from UTSA Reporting Station
Smoke Smoke  
Wind Chill: 73°   Ceiling: Unl
Heat Index: 73°   Visibility: 3mi
Dew Point: 48°   Wind: 0mph
Humidity: 41%   Direction: NA
Pressure: 29.94"   Gusts: NA
Location:  41.73°N, 64.62°E
Report Text: UTSA 250930Z 00000MPS 5000 FU NSC 23/09 Q1014 R25/CLRD70 NOSIG
Loading
Personal Weather Stations






























Interactive Weather Map
Tropical Storm Tracking
New forecast layout! Learn more

10-Day Weather Forecast

Advertisements
Track Severe Weather on mobile